sensor_id;sensor_type;location;lat;lon;timestamp;pressure;altitude;pressure_sealevel;temperature;humidity
17855;BME280;9053;53.358;6.382;2023-03-26T00:00:17;100478.97;;;8.87;100.00
17855;BME280;9053;53.358;6.382;2023-03-26T00:02:47;100470.88;;;8.81;100.00
17855;BME280;9053;53.358;6.382;2023-03-26T00:05:17;100481.25;;;8.78;100.00
17855;BME280;9053;53.358;6.382;2023-03-26T00:07:51;100482.13;;;8.78;100.00
17855;BME280;9053;53.358;6.382;2023-03-26T00:10:20;100480.31;;;8.76;100.00
17855;BME280;9053;53.358;6.382;2023-03-26T00:12:51;100478.47;;;8.73;100.00
17855;BME280;9053;53.358;6.382;2023-03-26T00:15:21;100476.69;;;8.72;100.00
17855;BME280;9053;53.358;6.382;2023-03-26T00:17:52;100480.97;;;8.70;100.00
17855;BME280;9053;53.358;6.382;2023-03-26T00:20:23;100494.09;;;8.70;100.00
17855;BME280;9053;53.358;6.382;2023-03-26T00:22:55;100480.91;;;8.69;100.00
17855;BME280;9053;53.358;6.382;2023-03-26T00:25:27;100489.56;;;8.66;100.00
17855;BME280;9053;53.358;6.382;2023-03-26T00:27:57;100485.09;;;8.63;100.00
17855;BME280;9053;53.358;6.382;2023-03-26T00:30:27;100490.25;;;8.60;100.00
17855;BME280;9053;53.358;6.382;2023-03-26T00:32:57;100498.88;;;8.58;100.00
17855;BME280;9053;53.358;6.382;2023-03-26T00:35:27;100497.91;;;8.54;100.00
17855;BME280;9053;53.358;6.382;2023-03-26T00:38:00;100505.63;;;8.51;100.00
17855;BME280;9053;53.358;6.382;2023-03-26T00:40:31;100511.59;;;8.47;100.00
17855;BME280;9053;53.358;6.382;2023-03-26T00:43:02;100506.22;;;8.44;100.00
17855;BME280;9053;53.358;6.382;2023-03-26T00:45:45;100510.53;;;8.42;100.00
17855;BME280;9053;53.358;6.382;2023-03-26T00:48:15;100508.75;;;8.41;100.00
17855;BME280;9053;53.358;6.382;2023-03-26T00:50:52;100504.38;;;8.41;100.00
17855;BME280;9053;53.358;6.382;2023-03-26T00:53:24;100506.97;;;8.40;100.00
17855;BME280;9053;53.358;6.382;2023-03-26T00:55:54;100504.38;;;8.41;100.00
17855;BME280;9053;53.358;6.382;2023-03-26T00:58:26;100506.13;;;8.41;100.00
17855;BME280;9053;53.358;6.382;2023-03-26T01:00:59;100505.25;;;8.40;100.00
17855;BME280;9053;53.358;6.382;2023-03-26T01:03:33;100513.16;;;8.42;100.00
17855;BME280;9053;53.358;6.382;2023-03-26T01:06:05;100508.03;;;8.45;100.00
17855;BME280;9053;53.358;6.382;2023-03-26T01:08:41;100515.94;;;8.47;100.00
17855;BME280;9053;53.358;6.382;2023-03-26T01:11:14;100506.22;;;8.44;100.00
17855;BME280;9053;53.358;6.382;2023-03-26T01:13:47;100500.88;;;8.41;100.00
17855;BME280;9053;53.358;6.382;2023-03-26T01:16:23;100499.09;;;8.40;100.00
17855;BME280;9053;53.358;6.382;2023-03-26T01:18:54;100504.25;;;8.38;100.00
17855;BME280;9053;53.358;6.382;2023-03-26T01:21:27;100501.59;;;8.37;100.00
17855;BME280;9053;53.358;6.382;2023-03-26T01:24:04;100499.78;;;8.36;100.00
17855;BME280;9053;53.358;6.382;2023-03-26T01:26:55;100509.44;;;8.37;100.00
17855;BME280;9053;53.358;6.382;2023-03-26T01:29:31;100508.53;;;8.36;100.00
17855;BME280;9053;53.358;6.382;2023-03-26T01:32:08;100501.44;;;8.34;100.00
17855;BME280;9053;53.358;6.382;2023-03-26T01:34:51;100501.41;;;8.32;100.00
17855;BME280;9053;53.358;6.382;2023-03-26T01:37:32;100503.19;;;8.33;100.00
17855;BME280;9053;53.358;6.382;2023-03-26T01:40:11;100506.69;;;8.34;100.00
17855;BME280;9053;53.358;6.382;2023-03-26T01:42:53;100507.53;;;8.33;100.00
17855;BME280;9053;53.358;6.382;2023-03-26T01:45:27;100507.53;;;8.33;100.00
17855;BME280;9053;53.358;6.382;2023-03-26T01:47:59;100498.78;;;8.32;100.00
17855;BME280;9053;53.358;6.382;2023-03-26T01:50:29;100499.75;;;8.34;99.80
17855;BME280;9053;53.358;6.382;2023-03-26T01:52:59;100494.53;;;8.36;99.65
17855;BME280;9053;53.358;6.382;2023-03-26T01:55:38;100492.81;;;8.36;99.38
17855;BME280;9053;53.358;6.382;2023-03-26T01:58:22;100498.00;;;8.35;99.29
17855;BME280;9053;53.358;6.382;2023-03-26T02:01:04;100497.16;;;8.36;99.07
17855;BME280;9053;53.358;6.382;2023-03-26T02:03:42;100492.03;;;8.39;98.90
17855;BME280;9053;53.358;6.382;2023-03-26T02:06:18;100480.75;;;8.40;98.71
17855;BME280;9053;53.358;6.382;2023-03-26T02:08:54;100474.69;;;8.41;98.59
17855;BME280;9053;53.358;6.382;2023-03-26T02:11:27;100470.28;;;8.40;98.46
17855;BME280;9053;53.358;6.382;2023-03-26T02:14:02;100476.41;;;8.40;98.36
17855;BME280;9053;53.358;6.382;2023-03-26T02:16:33;100467.56;;;8.38;98.21
17855;BME280;9053;53.358;6.382;2023-03-26T02:19:03;100467.53;;;8.37;98.03
17855;BME280;9053;53.358;6.382;2023-03-26T02:21:41;100460.47;;;8.36;97.90
17855;BME280;9053;53.358;6.382;2023-03-26T02:24:12;100467.53;;;8.37;97.81
17855;BME280;9053;53.358;6.382;2023-03-26T02:26:45;100455.25;;;8.36;97.65
17855;BME280;9053;53.358;6.382;2023-03-26T02:29:15;100463.06;;;8.34;97.55
17855;BME280;9053;53.358;6.382;2023-03-26T02:31:46;100460.38;;;8.33;97.47
17855;BME280;9053;53.358;6.382;2023-03-26T02:34:16;100459.44;;;8.31;97.44
17855;BME280;9053;53.358;6.382;2023-03-26T02:36:46;100454.16;;;8.29;97.30
17855;BME280;9053;53.358;6.382;2023-03-26T02:39:16;100453.22;;;8.29;97.14
17855;BME280;9053;53.358;6.382;2023-03-26T02:41:49;100454.16;;;8.29;97.17
17855;BME280;9053;53.358;6.382;2023-03-26T02:44:20;100448.91;;;8.29;97.03
17855;BME280;9053;53.358;6.382;2023-03-26T02:46:50;100448.94;;;8.31;96.89
17855;BME280;9053;53.358;6.382;2023-03-26T02:49:20;100448.13;;;8.32;96.91
17855;BME280;9053;53.358;6.382;2023-03-26T02:51:50;100449.00;;;8.32;96.77
17855;BME280;9053;53.358;6.382;2023-03-26T02:54:22;100439.41;;;8.33;96.87
17855;BME280;9053;53.358;6.382;2023-03-26T02:56:54;100442.09;;;8.34;96.73
17855;BME280;9053;53.358;6.382;2023-03-26T02:59:26;100444.66;;;8.33;96.67
17855;BME280;9053;53.358;6.382;2023-03-26T03:01:56;100449.03;;;8.34;96.69
17855;BME280;9053;53.358;6.382;2023-03-26T03:04:26;100445.53;;;8.33;96.66
17855;BME280;9053;53.358;6.382;2023-03-26T03:06:56;100439.41;;;8.33;96.64
17855;BME280;9053;53.358;6.382;2023-03-26T03:09:26;100435.06;;;8.33;96.62
17855;BME280;9053;53.358;6.382;2023-03-26T03:11:59;100434.19;;;8.33;96.63
17855;BME280;9053;53.358;6.382;2023-03-26T03:14:28;100430.72;;;8.34;96.52
17855;BME280;9053;53.358;6.382;2023-03-26T03:16:58;100439.53;;;8.36;96.46
17855;BME280;9053;53.358;6.382;2023-03-26T03:19:28;100434.28;;;8.36;96.48
17855;BME280;9053;53.358;6.382;2023-03-26T03:21:58;100435.16;;;8.36;96.44
17855;BME280;9053;53.358;6.382;2023-03-26T03:24:29;100427.19;;;8.33;96.43
17855;BME280;9053;53.358;6.382;2023-03-26T03:27:02;100436.72;;;8.31;96.21
17855;BME280;9053;53.358;6.382;2023-03-26T03:29:32;100435.81;;;8.29;96.19
17855;BME280;9053;53.358;6.382;2023-03-26T03:32:02;100436.59;;;8.27;96.17
17855;BME280;9053;53.358;6.382;2023-03-26T03:34:32;100438.97;;;8.20;96.02
17855;BME280;9053;53.358;6.382;2023-03-26T03:37:04;100442.38;;;8.18;95.89
17855;BME280;9053;53.358;6.382;2023-03-26T03:39:34;100438.75;;;8.14;95.84
17855;BME280;9053;53.358;6.382;2023-03-26T03:42:06;100437.03;;;8.15;95.71
17855;BME280;9053;53.358;6.382;2023-03-26T03:44:37;100436.16;;;8.16;95.60
17855;BME280;9053;53.358;6.382;2023-03-26T03:47:07;100432.66;;;8.15;95.48
17855;BME280;9053;53.358;6.382;2023-03-26T03:49:39;100438.75;;;8.14;95.40
17855;BME280;9053;53.358;6.382;2023-03-26T03:52:09;100441.41;;;8.16;95.25
17855;BME280;9053;53.358;6.382;2023-03-26T03:54:39;100440.44;;;8.14;94.99
17855;BME280;9053;53.358;6.382;2023-03-26T03:57:11;100442.09;;;8.10;94.87
17855;BME280;9053;53.358;6.382;2023-03-26T03:59:41;100437.72;;;8.11;94.73
17855;BME280;9053;53.358;6.382;2023-03-26T04:02:14;100431.50;;;8.07;94.57
17855;BME280;9053;53.358;6.382;2023-03-26T04:04:57;100427.06;;;8.06;94.37
17855;BME280;9053;53.358;6.382;2023-03-26T04:07:28;100438.47;;;8.07;94.22
17855;BME280;9053;53.358;6.382;2023-03-26T04:09:59;100435.78;;;8.05;94.07
17855;BME280;9053;53.358;6.382;2023-03-26T04:12:32;100441.03;;;8.05;93.98
17855;BME280;9053;53.358;6.382;2023-03-26T04:15:06;100439.25;;;8.04;93.92
17855;BME280;9053;53.358;6.382;2023-03-26T04:17:35;100442.66;;;8.01;93.73
17855;BME280;9053;53.358;6.382;2023-03-26T04:20:11;100444.25;;;7.98;93.68
17855;BME280;9053;53.358;6.382;2023-03-26T04:22:41;100430.94;;;7.92;93.49
17855;BME280;9053;53.358;6.382;2023-03-26T04:25:13;100441.22;;;7.87;93.31
17855;BME280;9053;53.358;6.382;2023-03-26T04:27:46;100438.50;;;7.84;93.18
17855;BME280;9053;53.358;6.382;2023-03-26T04:30:18;100436.66;;;7.82;92.94
17855;BME280;9053;53.358;6.382;2023-03-26T04:32:49;100438.34;;;7.81;92.69
17855;BME280;9053;53.358;6.382;2023-03-26T04:35:19;100440.09;;;7.80;92.57
17855;BME280;9053;53.358;6.382;2023-03-26T04:37:49;100440.09;;;7.80;92.49
17855;BME280;9053;53.358;6.382;2023-03-26T04:40:20;100442.69;;;7.80;92.34
17855;BME280;9053;53.358;6.382;2023-03-26T04:42:53;100443.53;;;7.79;92.20
17855;BME280;9053;53.358;6.382;2023-03-26T04:45:29;100437.34;;;7.77;92.10
17855;BME280;9053;53.358;6.382;2023-03-26T04:47:59;100435.59;;;7.76;91.97
17855;BME280;9053;53.358;6.382;2023-03-26T04:50:29;100433.84;;;7.77;91.82
17855;BME280;9053;53.358;6.382;2023-03-26T04:52:59;100437.25;;;7.74;91.49
17855;BME280;9053;53.358;6.382;2023-03-26T04:55:33;100425.75;;;7.71;91.40
17855;BME280;9053;53.358;6.382;2023-03-26T04:58:07;100426.66;;;7.71;91.13
17855;BME280;9053;53.358;6.382;2023-03-26T05:00:39;100429.28;;;7.71;91.02
17855;BME280;9053;53.358;6.382;2023-03-26T05:03:10;100424.03;;;7.71;90.82
17855;BME280;9053;53.358;6.382;2023-03-26T05:05:42;100425.69;;;7.69;90.73
17855;BME280;9053;53.358;6.382;2023-03-26T05:08:12;100428.22;;;7.66;90.44
17855;BME280;9053;53.358;6.382;2023-03-26T05:10:42;100421.06;;;7.62;90.30
17855;BME280;9053;53.358;6.382;2023-03-26T05:13:14;100427.06;;;7.59;90.21
17855;BME280;9053;53.358;6.382;2023-03-26T05:15:44;100429.69;;;7.59;90.10
17855;BME280;9053;53.358;6.382;2023-03-26T05:18:14;100432.38;;;7.61;90.02
17855;BME280;9053;53.358;6.382;2023-03-26T05:20:44;100431.59;;;7.64;89.94
17855;BME280;9053;53.358;6.382;2023-03-26T05:23:14;100435.00;;;7.61;89.84
17855;BME280;9053;53.358;6.382;2023-03-26T05:25:43;100427.06;;;7.59;89.72
17855;BME280;9053;53.358;6.382;2023-03-26T05:28:16;100432.31;;;7.59;89.66
17855;BME280;9053;53.358;6.382;2023-03-26T05:30:50;100423.44;;;7.56;89.55
17855;BME280;9053;53.358;6.382;2023-03-26T05:33:22;100436.56;;;7.57;89.54
17855;BME280;9053;53.358;6.382;2023-03-26T05:35:58;100421.72;;;7.56;89.49
17855;BME280;9053;53.358;6.382;2023-03-26T05:38:28;100435.44;;;7.51;89.40
17855;BME280;9053;53.358;6.382;2023-03-26T05:41:03;100429.28;;;7.49;89.26
17855;BME280;9053;53.358;6.382;2023-03-26T05:43:36;100419.81;;;7.52;89.26
17855;BME280;9053;53.358;6.382;2023-03-26T05:46:06;100421.66;;;7.55;89.08
17855;BME280;9053;53.358;6.382;2023-03-26T05:48:36;100418.03;;;7.51;89.04
17855;BME280;9053;53.358;6.382;2023-03-26T05:51:06;100418.03;;;7.51;88.98
17855;BME280;9053;53.358;6.382;2023-03-26T05:53:38;100429.47;;;7.53;88.91
17855;BME280;9053;53.358;6.382;2023-03-26T05:56:08;100421.84;;;7.59;88.93
17855;BME280;9053;53.358;6.382;2023-03-26T05:58:41;100424.56;;;7.63;88.92
17855;BME280;9053;53.358;6.382;2023-03-26T06:01:12;100420.28;;;7.65;88.87
17855;BME280;9053;53.358;6.382;2023-03-26T06:03:45;100419.59;;;7.69;88.93
17855;BME280;9053;53.358;6.382;2023-03-26T06:06:19;100419.63;;;7.70;88.95
17855;BME280;9053;53.358;6.382;2023-03-26T06:08:50;100414.50;;;7.73;88.91
17855;BME280;9053;53.358;6.382;2023-03-26T06:11:28;100410.19;;;7.74;89.01
17855;BME280;9053;53.358;6.382;2023-03-26T06:14:01;100410.22;;;7.75;88.86
17855;BME280;9053;53.358;6.382;2023-03-26T06:16:31;100409.50;;;7.79;88.90
17855;BME280;9053;53.358;6.382;2023-03-26T06:19:01;100406.06;;;7.80;88.91
17855;BME280;9053;53.358;6.382;2023-03-26T06:21:31;100403.31;;;7.77;88.85
17855;BME280;9053;53.358;6.382;2023-03-26T06:24:01;100401.59;;;7.78;88.91
17855;BME280;9053;53.358;6.382;2023-03-26T06:26:31;100411.25;;;7.79;88.75
17855;BME280;9053;53.358;6.382;2023-03-26T06:29:04;100406.16;;;7.84;88.80
17855;BME280;9053;53.358;6.382;2023-03-26T06:31:34;100409.88;;;7.89;88.83
17855;BME280;9053;53.358;6.382;2023-03-26T06:34:04;100405.69;;;7.94;88.86
17855;BME280;9053;53.358;6.382;2023-03-26T06:36:34;100406.59;;;7.94;88.81
17855;BME280;9053;53.358;6.382;2023-03-26T06:39:04;100409.31;;;7.97;88.84
17855;BME280;9053;53.358;6.382;2023-03-26T06:41:34;100413.84;;;8.01;88.85
17855;BME280;9053;53.358;6.382;2023-03-26T06:46:52;100417.84;;;8.16;88.79
17855;BME280;9053;53.358;6.382;2023-03-26T06:49:22;100417.91;;;8.17;88.67
17855;BME280;9053;53.358;6.382;2023-03-26T06:51:51;100417.84;;;8.16;88.56
17855;BME280;9053;53.358;6.382;2023-03-26T06:54:21;100411.66;;;8.14;88.41
17855;BME280;9053;53.358;6.382;2023-03-26T06:56:53;100412.56;;;8.14;88.22
17855;BME280;9053;53.358;6.382;2023-03-26T06:59:24;100418.56;;;8.12;88.08
17855;BME280;9053;53.358;6.382;2023-03-26T07:01:57;100415.13;;;8.13;88.09
17855;BME280;9053;53.358;6.382;2023-03-26T07:04:27;100417.81;;;8.14;88.10
17855;BME280;9053;53.358;6.382;2023-03-26T07:06:57;100417.66;;;8.11;87.88
17855;BME280;9053;53.358;6.382;2023-03-26T07:09:27;100415.00;;;8.10;87.80
17855;BME280;9053;53.358;6.382;2023-03-26T07:11:57;100418.31;;;8.04;87.56
17855;BME280;9053;53.358;6.382;2023-03-26T07:14:27;100407.53;;;7.96;87.41
17855;BME280;9053;53.358;6.382;2023-03-26T07:17:01;100412.00;;;7.99;87.18
17855;BME280;9053;53.358;6.382;2023-03-26T07:19:33;100417.34;;;8.02;87.08
17855;BME280;9053;53.358;6.382;2023-03-26T07:22:03;100417.44;;;8.05;87.02
17855;BME280;9053;53.358;6.382;2023-03-26T07:24:35;100413.47;;;8.16;87.03
17855;BME280;9053;53.358;6.382;2023-03-26T07:27:26;100414.16;;;8.35;87.03
17855;BME280;9053;53.358;6.382;2023-03-26T07:30:08;100414.69;;;8.49;86.98
17855;BME280;9053;53.358;6.382;2023-03-26T07:32:49;100419.28;;;8.54;87.06
17855;BME280;9053;53.358;6.382;2023-03-26T07:35:25;100422.16;;;8.62;87.20
17855;BME280;9053;53.358;6.382;2023-03-26T07:38:10;100422.28;;;8.66;87.15
17855;BME280;9053;53.358;6.382;2023-03-26T07:40:53;100419.81;;;8.70;87.04
17855;BME280;9053;53.358;6.382;2023-03-26T07:43:41;100419.16;;;8.77;86.98
17855;BME280;9053;53.358;6.382;2023-03-26T07:46:14;100411.25;;;8.75;86.72
17855;BME280;9053;53.358;6.382;2023-03-26T07:48:49;100417.22;;;8.71;86.59
17855;BME280;9053;53.358;6.382;2023-03-26T07:51:21;100413.69;;;8.71;86.38
17855;BME280;9053;53.358;6.382;2023-03-26T07:53:51;100404.25;;;8.76;86.06
17855;BME280;9053;53.358;6.382;2023-03-26T07:56:27;100403.41;;;8.77;85.82
17855;BME280;9053;53.358;6.382;2023-03-26T07:59:10;100403.91;;;8.65;85.46
17855;BME280;9053;53.358;6.382;2023-03-26T08:01:53;100407.94;;;8.55;85.22
17855;BME280;9053;53.358;6.382;2023-03-26T08:04:41;100411.78;;;8.41;84.93
17855;BME280;9053;53.358;6.382;2023-03-26T08:07:20;100403.59;;;8.32;84.55
17855;BME280;9053;53.358;6.382;2023-03-26T08:10:05;100412.22;;;8.29;84.41
17855;BME280;9053;53.358;6.382;2023-03-26T08:12:43;100411.09;;;8.22;84.13
17855;BME280;9053;53.358;6.382;2023-03-26T08:15:21;100409.03;;;8.14;83.92
17855;BME280;9053;53.358;6.382;2023-03-26T08:18:00;100408.13;;;8.13;83.63
17855;BME280;9053;53.358;6.382;2023-03-26T08:20:41;100410.59;;;8.09;83.58
17855;BME280;9053;53.358;6.382;2023-03-26T08:23:21;100415.78;;;8.07;83.40
17855;BME280;9053;53.358;6.382;2023-03-26T08:25:59;100410.59;;;8.09;83.32
17855;BME280;9053;53.358;6.382;2023-03-26T08:28:47;100414.16;;;8.11;83.03
17855;BME280;9053;53.358;6.382;2023-03-26T08:31:30;100415.88;;;8.10;82.83
17855;BME280;9053;53.358;6.382;2023-03-26T08:34:01;100416.78;;;8.11;82.49
17855;BME280;9053;53.358;6.382;2023-03-26T08:36:34;100415.22;;;8.16;82.44
17855;BME280;9053;53.358;6.382;2023-03-26T08:39:05;100418.78;;;8.18;82.28
17855;BME280;9053;53.358;6.382;2023-03-26T08:41:50;100427.66;;;8.21;82.11
17855;BME280;9053;53.358;6.382;2023-03-26T08:44:49;100424.91;;;8.18;81.87
17855;BME280;9053;53.358;6.382;2023-03-26T08:48:07;100425.06;;;8.21;81.76
17855;BME280;9053;53.358;6.382;2023-03-26T08:51:00;100422.44;;;8.21;81.50
17855;BME280;9053;53.358;6.382;2023-03-26T08:54:01;100423.59;;;8.30;81.32
17855;BME280;9053;53.358;6.382;2023-03-26T08:56:48;100423.91;;;8.39;81.15
17855;BME280;9053;53.358;6.382;2023-03-26T08:59:43;100423.44;;;8.49;81.05
17855;BME280;9053;53.358;6.382;2023-03-26T09:02:43;100437.63;;;8.54;80.78
17855;BME280;9053;53.358;6.382;2023-03-26T09:05:48;100431.53;;;8.55;80.44
17855;BME280;9053;53.358;6.382;2023-03-26T09:18:17;100435.72;;;8.76;79.58
17855;BME280;9053;53.358;6.382;2023-03-26T09:21:10;100435.41;;;8.66;79.39
17855;BME280;9053;53.358;6.382;2023-03-26T09:26:59;100443.50;;;8.49;79.00
17855;BME280;9053;53.358;6.382;2023-03-26T09:30:02;100444.88;;;8.39;78.88
17855;BME280;9053;53.358;6.382;2023-03-26T09:33:02;100443.66;;;8.29;78.74
17855;BME280;9053;53.358;6.382;2023-03-26T09:35:52;100451.47;;;8.28;78.67
17855;BME280;9053;53.358;6.382;2023-03-26T09:38:43;100449.53;;;8.23;78.58
17855;BME280;9053;53.358;6.382;2023-03-26T09:41:16;100451.84;;;8.14;78.45
17855;BME280;9053;53.358;6.382;2023-03-26T09:47:27;100458.56;;;8.08;78.38
17855;BME280;9053;53.358;6.382;2023-03-26T09:50:18;100462.16;;;8.10;78.24
17855;BME280;9053;53.358;6.382;2023-03-26T09:53:01;100457.69;;;8.07;78.17
17855;BME280;9053;53.358;6.382;2023-03-26T09:55:44;100466.34;;;8.06;78.08
17855;BME280;9053;53.358;6.382;2023-03-26T10:01:10;100470.88;;;8.10;77.93
17855;BME280;9053;53.358;6.382;2023-03-26T10:03:54;100470.81;;;8.09;77.72
17855;BME280;9053;53.358;6.382;2023-03-26T10:06:43;100473.41;;;8.07;77.37
17855;BME280;9053;53.358;6.382;2023-03-26T10:09:41;100473.41;;;8.07;77.13
17855;BME280;9053;53.358;6.382;2023-03-26T10:12:22;100476.03;;;8.07;77.06
17855;BME280;9053;53.358;6.382;2023-03-26T10:15:02;100471.66;;;8.08;76.93
17855;BME280;9053;53.358;6.382;2023-03-26T10:17:44;100477.09;;;8.12;76.76
17855;BME280;9053;53.358;6.382;2023-03-26T10:20:26;100478.16;;;8.17;76.65
17855;BME280;9053;53.358;6.382;2023-03-26T10:23:09;100482.81;;;8.26;76.60
17855;BME280;9053;53.358;6.382;2023-03-26T10:25:53;100478.91;;;8.37;76.53
17855;BME280;9053;53.358;6.382;2023-03-26T10:28:49;100482.53;;;8.41;76.38
17855;BME280;9053;53.358;6.382;2023-03-26T10:31:39;100483.56;;;8.44;76.36
17855;BME280;9053;53.358;6.382;2023-03-26T10:34:28;100479.13;;;8.43;76.16
17855;BME280;9053;53.358;6.382;2023-03-26T10:37:07;100484.28;;;8.40;75.90
17855;BME280;9053;53.358;6.382;2023-03-26T10:43:19;100480.03;;;8.44;75.62
17855;BME280;9053;53.358;6.382;2023-03-26T10:48:59;100480.88;;;8.43;75.43
17855;BME280;9053;53.358;6.382;2023-03-26T10:51:39;100485.50;;;8.50;75.44
17855;BME280;9053;53.358;6.382;2023-03-26T10:54:14;100487.16;;;8.48;75.37
17855;BME280;9053;53.358;6.382;2023-03-26T10:56:48;100487.97;;;8.45;75.14
17855;BME280;9053;53.358;6.382;2023-03-26T10:59:25;100482.72;;;8.45;75.18
17855;BME280;9053;53.358;6.382;2023-03-26T11:02:03;100481.94;;;8.48;75.07
17855;BME280;9053;53.358;6.382;2023-03-26T11:04:42;100483.59;;;8.46;75.05
17855;BME280;9053;53.358;6.382;2023-03-26T11:07:22;100494.03;;;8.44;75.12
17855;BME280;9053;53.358;6.382;2023-03-26T11:10:00;100493.88;;;8.40;75.07
17855;BME280;9053;53.358;6.382;2023-03-26T11:12:39;100498.91;;;8.35;75.08
17855;BME280;9053;53.358;6.382;2023-03-26T11:15:23;100496.19;;;8.32;75.17
17855;BME280;9053;53.358;6.382;2023-03-26T11:18:04;100503.97;;;8.31;75.02
17855;BME280;9053;53.358;6.382;2023-03-26T11:20:44;100499.41;;;8.25;75.03
17855;BME280;9053;53.358;6.382;2023-03-26T11:23:33;100509.16;;;8.29;74.76
17855;BME280;9053;53.358;6.382;2023-03-26T11:26:07;100496.22;;;8.34;74.81
17855;BME280;9053;53.358;6.382;2023-03-26T11:28:56;100510.25;;;8.36;74.71
17855;BME280;9053;53.358;6.382;2023-03-26T11:31:58;100516.34;;;8.35;74.57
17855;BME280;9053;53.358;6.382;2023-03-26T11:34:33;100512.00;;;8.35;74.47
17855;BME280;9053;53.358;6.382;2023-03-26T11:37:10;100516.34;;;8.35;74.25
17855;BME280;9053;53.358;6.382;2023-03-26T11:39:47;100523.16;;;8.30;74.18
17855;BME280;9053;53.358;6.382;2023-03-26T11:42:23;100520.56;;;8.31;74.20
17855;BME280;9053;53.358;6.382;2023-03-26T11:44:54;100519.09;;;8.38;74.28
17855;BME280;9053;53.358;6.382;2023-03-26T11:47:34;100519.22;;;8.41;74.38
17855;BME280;9053;53.358;6.382;2023-03-26T11:50:14;100527.34;;;8.47;74.32
17855;BME280;9053;53.358;6.382;2023-03-26T11:52:45;100517.91;;;8.52;74.27
17855;BME280;9053;53.358;6.382;2023-03-26T11:55:15;100513.50;;;8.51;74.19
17855;BME280;9053;53.358;6.382;2023-03-26T11:57:50;100522.25;;;8.52;74.19
17855;BME280;9053;53.358;6.382;2023-03-26T12:00:23;100513.31;;;8.47;74.10
17855;BME280;9053;53.358;6.382;2023-03-26T12:02:58;100514.06;;;8.42;74.16
17855;BME280;9053;53.358;6.382;2023-03-26T12:05:28;100519.28;;;8.42;74.21
17855;BME280;9053;53.358;6.382;2023-03-26T12:08:14;100521.84;;;8.41;74.25
17855;BME280;9053;53.358;6.382;2023-03-26T12:10:50;100535.78;;;8.40;74.28
17855;BME280;9053;53.358;6.382;2023-03-26T12:13:33;100536.78;;;8.43;74.37
17855;BME280;9053;53.358;6.382;2023-03-26T12:16:14;100542.66;;;8.38;74.18
17855;BME280;9053;53.358;6.382;2023-03-26T12:18:58;100537.97;;;8.29;73.94
17855;BME280;9053;53.358;6.382;2023-03-26T12:21:29;100528.50;;;8.33;73.82
17855;BME280;9053;53.358;6.382;2023-03-26T12:24:00;100536.78;;;8.43;73.90
17855;BME280;9053;53.358;6.382;2023-03-26T12:26:39;100546.50;;;8.46;73.69
17855;BME280;9053;53.358;6.382;2023-03-26T12:29:12;100538.69;;;8.48;73.72
17855;BME280;9053;53.358;6.382;2023-03-26T12:31:51;100544.94;;;8.51;73.85
17855;BME280;9053;53.358;6.382;2023-03-26T12:34:28;100551.25;;;8.56;74.08
17855;BME280;9053;53.358;6.382;2023-03-26T12:37:01;100544.13;;;8.52;74.26
17855;BME280;9053;53.358;6.382;2023-03-26T12:39:34;100551.97;;;8.52;74.42
17855;BME280;9053;53.358;6.382;2023-03-26T12:42:27;100549.28;;;8.51;74.47
17855;BME280;9053;53.358;6.382;2023-03-26T12:45:20;100562.47;;;8.52;74.38
17855;BME280;9053;53.358;6.382;2023-03-26T12:47:51;100560.47;;;8.47;74.30
17855;BME280;9053;53.358;6.382;2023-03-26T12:50:48;100561.84;;;8.37;74.12
17855;BME280;9053;53.358;6.382;2023-03-26T12:56:19;100569.28;;;8.26;73.87
17855;BME280;9053;53.358;6.382;2023-03-26T12:59:00;100577.09;;;8.24;73.78
17855;BME280;9053;53.358;6.382;2023-03-26T13:01:45;100571.91;;;8.26;73.91
17855;BME280;9053;53.358;6.382;2023-03-26T13:07:44;100588.09;;;8.16;73.78
17855;BME280;9053;53.358;6.382;2023-03-26T13:10:36;100580.72;;;8.06;73.38
17855;BME280;9053;53.358;6.382;2023-03-26T13:13:25;100572.75;;;8.02;73.25
17855;BME280;9053;53.358;6.382;2023-03-26T13:16:02;100574.00;;;8.12;73.12
17855;BME280;9053;53.358;6.382;2023-03-26T13:18:49;100566.63;;;8.24;73.20
17855;BME280;9053;53.358;6.382;2023-03-26T13:21:29;100582.06;;;8.39;73.20
17855;BME280;9053;53.358;6.382;2023-03-26T13:24:08;100585.38;;;8.35;73.36
17855;BME280;9053;53.358;6.382;2023-03-26T13:26:55;100580.72;;;8.28;73.49
17855;BME280;9053;53.358;6.382;2023-03-26T13:29:35;100591.69;;;8.18;73.58
17855;BME280;9053;53.358;6.382;2023-03-26T13:32:14;100583.59;;;8.12;73.66
17855;BME280;9053;53.358;6.382;2023-03-26T13:34:58;100595.06;;;8.15;73.85
17855;BME280;9053;53.358;6.382;2023-03-26T13:37:38;100601.97;;;8.13;73.92
17855;BME280;9053;53.358;6.382;2023-03-26T13:40:22;100595.66;;;8.08;73.89
17855;BME280;9053;53.358;6.382;2023-03-26T13:43:12;100595.31;;;7.99;73.75
17855;BME280;9053;53.358;6.382;2023-03-26T13:45:54;100598.69;;;7.96;73.71
17855;BME280;9053;53.358;6.382;2023-03-26T13:48:28;100605.78;;;7.99;73.59
17855;BME280;9053;53.358;6.382;2023-03-26T13:51:05;100599.78;;;8.01;73.50
17855;BME280;9053;53.358;6.382;2023-03-26T13:53:42;100602.44;;;8.03;73.38
17855;BME280;9053;53.358;6.382;2023-03-26T13:56:18;100597.31;;;8.06;73.36
17855;BME280;9053;53.358;6.382;2023-03-26T13:58:53;100609.59;;;8.07;73.35
17855;BME280;9053;53.358;6.382;2023-03-26T14:01:29;100610.59;;;8.11;73.45
17855;BME280;9053;53.358;6.382;2023-03-26T14:04:13;100602.63;;;8.08;73.44
17855;BME280;9053;53.358;6.382;2023-03-26T14:06:49;100607.63;;;8.01;73.24
17855;BME280;9053;53.358;6.382;2023-03-26T14:09:27;100600.78;;;8.05;73.38
17855;BME280;9053;53.358;6.382;2023-03-26T14:12:28;100609.59;;;8.07;73.30
17855;BME280;9053;53.358;6.382;2023-03-26T14:15:03;100610.66;;;8.12;73.42
17855;BME280;9053;53.358;6.382;2023-03-26T14:17:37;100610.00;;;8.18;73.28
17855;BME280;9053;53.358;6.382;2023-03-26T14:20:48;100611.97;;;8.23;73.42
17855;BME280;9053;53.358;6.382;2023-03-26T14:23:44;100619.53;;;8.16;73.18
17855;BME280;9053;53.358;6.382;2023-03-26T14:26:35;100621.44;;;8.20;73.12
17855;BME280;9053;53.358;6.382;2023-03-26T14:29:27;100622.34;;;8.20;73.15
17855;BME280;9053;53.358;6.382;2023-03-26T14:32:11;100622.22;;;8.17;73.09
17855;BME280;9053;53.358;6.382;2023-03-26T14:35:15;100634.63;;;8.21;73.06